sensor_id;sensor_type;location;lat;lon;timestamp;P1;durP1;ratioP1;P2;durP2;ratioP2
24761;SDS011;12865;51.934;10.330;2023-05-10T00:01:58;6.35;;;3.70;;
24761;SDS011;12865;51.934;10.330;2023-05-10T00:04:43;4.45;;;3.70;;
24761;SDS011;12865;51.934;10.330;2023-05-10T00:07:29;5.57;;;3.95;;
24761;SDS011;12865;51.934;10.330;2023-05-10T00:10:15;5.10;;;4.07;;
24761;SDS011;12865;51.934;10.330;2023-05-10T00:13:00;4.57;;;3.70;;
24761;SDS011;12865;51.934;10.330;2023-05-10T00:15:46;6.28;;;3.70;;
24761;SDS011;12865;51.934;10.330;2023-05-10T00:18:32;6.80;;;4.03;;
24761;SDS011;12865;51.934;10.330;2023-05-10T00:21:17;8.85;;;4.50;;
24761;SDS011;12865;51.934;10.330;2023-05-10T00:24:03;4.68;;;3.85;;
24761;SDS011;12865;51.934;10.330;2023-05-10T00:26:50;10.57;;;4.20;;
24761;SDS011;12865;51.934;10.330;2023-05-10T00:29:35;7.43;;;4.05;;
24761;SDS011;12865;51.934;10.330;2023-05-10T00:32:21;4.43;;;3.97;;
24761;SDS011;12865;51.934;10.330;2023-05-10T00:35:07;7.60;;;3.90;;
24761;SDS011;12865;51.934;10.330;2023-05-10T00:37:53;4.43;;;4.03;;
24761;SDS011;12865;51.934;10.330;2023-05-10T00:40:38;8.45;;;4.65;;
24761;SDS011;12865;51.934;10.330;2023-05-10T00:43:24;5.57;;;3.90;;
24761;SDS011;12865;51.934;10.330;2023-05-10T00:46:10;6.95;;;4.20;;
24761;SDS011;12865;51.934;10.330;2023-05-10T00:48:56;5.53;;;3.95;;
24761;SDS011;12865;51.934;10.330;2023-05-10T00:51:42;5.65;;;3.92;;
24761;SDS011;12865;51.934;10.330;2023-05-10T00:54:28;5.00;;;3.63;;
24761;SDS011;12865;51.934;10.330;2023-05-10T00:57:14;5.80;;;4.00;;
24761;SDS011;12865;51.934;10.330;2023-05-10T01:00:00;4.05;;;3.72;;
24761;SDS011;12865;51.934;10.330;2023-05-10T01:02:47;5.93;;;3.83;;
24761;SDS011;12865;51.934;10.330;2023-05-10T01:05:33;6.60;;;4.18;;
24761;SDS011;12865;51.934;10.330;2023-05-10T01:08:18;7.47;;;4.00;;
24761;SDS011;12865;51.934;10.330;2023-05-10T01:11:04;6.50;;;4.43;;
24761;SDS011;12865;51.934;10.330;2023-05-10T01:13:52;6.10;;;4.60;;
24761;SDS011;12865;51.934;10.330;2023-05-10T01:16:41;7.50;;;4.45;;
24761;SDS011;12865;51.934;10.330;2023-05-10T01:19:29;5.70;;;4.85;;
24761;SDS011;12865;51.934;10.330;2023-05-10T01:22:32;10.13;;;5.32;;
24761;SDS011;12865;51.934;10.330;2023-05-10T01:32:14;5.40;;;4.55;;
24761;SDS011;12865;51.934;10.330;2023-05-10T01:35:07;5.65;;;4.50;;
24761;SDS011;12865;51.934;10.330;2023-05-10T01:41:39;5.18;;;4.30;;
24761;SDS011;12865;51.934;10.330;2023-05-10T01:48:05;5.30;;;3.70;;
24761;SDS011;12865;51.934;10.330;2023-05-10T01:50:53;4.85;;;3.70;;
24761;SDS011;12865;51.934;10.330;2023-05-10T01:53:41;5.55;;;3.67;;
24761;SDS011;12865;51.934;10.330;2023-05-10T01:56:30;5.68;;;4.07;;
24761;SDS011;12865;51.934;10.330;2023-05-10T01:59:18;4.97;;;3.92;;
24761;SDS011;12865;51.934;10.330;2023-05-10T02:02:05;5.53;;;4.30;;
24761;SDS011;12865;51.934;10.330;2023-05-10T02:04:53;4.70;;;4.28;;
24761;SDS011;12865;51.934;10.330;2023-05-10T02:07:41;4.70;;;4.18;;
24761;SDS011;12865;51.934;10.330;2023-05-10T02:10:28;5.53;;;4.10;;
24761;SDS011;12865;51.934;10.330;2023-05-10T02:13:14;5.72;;;3.75;;
24761;SDS011;12865;51.934;10.330;2023-05-10T02:16:02;5.15;;;4.00;;
24761;SDS011;12865;51.934;10.330;2023-05-10T02:18:50;4.93;;;3.85;;
24761;SDS011;12865;51.934;10.330;2023-05-10T02:21:38;5.45;;;3.42;;
24761;SDS011;12865;51.934;10.330;2023-05-10T02:24:25;6.65;;;3.83;;
24761;SDS011;12865;51.934;10.330;2023-05-10T02:27:12;4.57;;;3.65;;
24761;SDS011;12865;51.934;10.330;2023-05-10T02:30:00;4.70;;;3.80;;
24761;SDS011;12865;51.934;10.330;2023-05-10T02:32:47;4.43;;;3.80;;
24761;SDS011;12865;51.934;10.330;2023-05-10T02:35:35;4.43;;;4.03;;
24761;SDS011;12865;51.934;10.330;2023-05-10T02:38:22;6.00;;;3.78;;
24761;SDS011;12865;51.934;10.330;2023-05-10T02:41:09;4.70;;;3.83;;
24761;SDS011;12865;51.934;10.330;2023-05-10T02:43:57;6.00;;;4.18;;
24761;SDS011;12865;51.934;10.330;2023-05-10T02:46:46;7.75;;;4.20;;
24761;SDS011;12865;51.934;10.330;2023-05-10T02:49:32;4.38;;;3.90;;
24761;SDS011;12865;51.934;10.330;2023-05-10T02:52:19;4.88;;;4.30;;
24761;SDS011;12865;51.934;10.330;2023-05-10T02:55:09;5.80;;;3.83;;
24761;SDS011;12865;51.934;10.330;2023-05-10T02:57:59;6.90;;;4.15;;
24761;SDS011;12865;51.934;10.330;2023-05-10T03:00:46;4.82;;;3.75;;
24761;SDS011;12865;51.934;10.330;2023-05-10T03:03:32;5.28;;;3.97;;
24761;SDS011;12865;51.934;10.330;2023-05-10T03:06:17;4.25;;;3.92;;
24761;SDS011;12865;51.934;10.330;2023-05-10T03:09:03;4.70;;;4.15;;
24761;SDS011;12865;51.934;10.330;2023-05-10T03:11:56;4.95;;;4.00;;
24761;SDS011;12865;51.934;10.330;2023-05-10T03:18:06;4.95;;;4.45;;
24761;SDS011;12865;51.934;10.330;2023-05-10T03:20:57;5.30;;;4.07;;
24761;SDS011;12865;51.934;10.330;2023-05-10T03:23:53;6.68;;;5.00;;
24761;SDS011;12865;51.934;10.330;2023-05-10T03:26:43;8.30;;;4.95;;
24761;SDS011;12865;51.934;10.330;2023-05-10T03:29:30;5.00;;;4.60;;
24761;SDS011;12865;51.934;10.330;2023-05-10T03:32:17;5.55;;;4.75;;
24761;SDS011;12865;51.934;10.330;2023-05-10T03:35:09;7.22;;;4.95;;
24761;SDS011;12865;51.934;10.330;2023-05-10T03:37:57;6.13;;;5.40;;
24761;SDS011;12865;51.934;10.330;2023-05-10T03:40:42;5.45;;;4.88;;
24761;SDS011;12865;51.934;10.330;2023-05-10T03:43:28;6.53;;;5.40;;
24761;SDS011;12865;51.934;10.330;2023-05-10T03:46:14;9.77;;;5.18;;
24761;SDS011;12865;51.934;10.330;2023-05-10T03:48:59;5.65;;;5.13;;
24761;SDS011;12865;51.934;10.330;2023-05-10T03:51:45;7.93;;;5.80;;
24761;SDS011;12865;51.934;10.330;2023-05-10T03:54:31;5.50;;;4.95;;
24761;SDS011;12865;51.934;10.330;2023-05-10T03:57:17;7.00;;;5.38;;
24761;SDS011;12865;51.934;10.330;2023-05-10T04:00:03;6.55;;;5.50;;
24761;SDS011;12865;51.934;10.330;2023-05-10T04:02:49;6.60;;;5.38;;
24761;SDS011;12865;51.934;10.330;2023-05-10T04:05:35;5.65;;;5.15;;
24761;SDS011;12865;51.934;10.330;2023-05-10T04:08:21;6.35;;;5.20;;
24761;SDS011;12865;51.934;10.330;2023-05-10T04:11:07;5.78;;;5.28;;
24761;SDS011;12865;51.934;10.330;2023-05-10T04:13:54;7.63;;;5.80;;
24761;SDS011;12865;51.934;10.330;2023-05-10T04:16:39;8.55;;;5.97;;
24761;SDS011;12865;51.934;10.330;2023-05-10T04:19:28;5.28;;;4.88;;
24761;SDS011;12865;51.934;10.330;2023-05-10T04:22:17;5.68;;;4.82;;
24761;SDS011;12865;51.934;10.330;2023-05-10T04:25:03;6.80;;;5.05;;
24761;SDS011;12865;51.934;10.330;2023-05-10T04:27:49;7.47;;;5.55;;
24761;SDS011;12865;51.934;10.330;2023-05-10T04:30:35;9.77;;;6.07;;
24761;SDS011;12865;51.934;10.330;2023-05-10T04:33:21;7.18;;;5.28;;
24761;SDS011;12865;51.934;10.330;2023-05-10T04:36:07;9.63;;;5.82;;
24761;SDS011;12865;51.934;10.330;2023-05-10T04:38:52;8.98;;;6.05;;
24761;SDS011;12865;51.934;10.330;2023-05-10T04:41:38;6.85;;;5.82;;
24761;SDS011;12865;51.934;10.330;2023-05-10T04:44:24;11.77;;;6.38;;
24761;SDS011;12865;51.934;10.330;2023-05-10T04:47:09;7.30;;;6.47;;
24761;SDS011;12865;51.934;10.330;2023-05-10T04:49:55;8.20;;;6.18;;
24761;SDS011;12865;51.934;10.330;2023-05-10T04:52:41;11.68;;;6.53;;
24761;SDS011;12865;51.934;10.330;2023-05-10T04:55:26;8.15;;;6.05;;
24761;SDS011;12865;51.934;10.330;2023-05-10T04:58:12;6.47;;;5.75;;
24761;SDS011;12865;51.934;10.330;2023-05-10T05:01:04;9.60;;;6.22;;
24761;SDS011;12865;51.934;10.330;2023-05-10T05:03:51;9.05;;;7.47;;
24761;SDS011;12865;51.934;10.330;2023-05-10T05:06:38;6.65;;;6.05;;
24761;SDS011;12865;51.934;10.330;2023-05-10T05:09:23;9.15;;;6.68;;
24761;SDS011;12865;51.934;10.330;2023-05-10T05:12:09;9.35;;;5.40;;
24761;SDS011;12865;51.934;10.330;2023-05-10T05:14:59;6.70;;;5.72;;
24761;SDS011;12865;51.934;10.330;2023-05-10T05:17:45;6.85;;;5.30;;
24761;SDS011;12865;51.934;10.330;2023-05-10T05:20:31;5.82;;;5.28;;
24761;SDS011;12865;51.934;10.330;2023-05-10T05:23:18;5.43;;;4.93;;
24761;SDS011;12865;51.934;10.330;2023-05-10T05:26:06;5.35;;;4.85;;
24761;SDS011;12865;51.934;10.330;2023-05-10T05:28:51;6.00;;;4.88;;
24761;SDS011;12865;51.934;10.330;2023-05-10T05:31:39;5.57;;;5.07;;
24761;SDS011;12865;51.934;10.330;2023-05-10T05:34:25;5.65;;;4.88;;
24761;SDS011;12865;51.934;10.330;2023-05-10T05:37:18;5.20;;;4.80;;
24761;SDS011;12865;51.934;10.330;2023-05-10T05:40:05;4.82;;;4.47;;
24761;SDS011;12865;51.934;10.330;2023-05-10T05:42:51;5.70;;;5.20;;
24761;SDS011;12865;51.934;10.330;2023-05-10T05:45:37;5.80;;;5.20;;
24761;SDS011;12865;51.934;10.330;2023-05-10T05:48:22;7.95;;;5.22;;
24761;SDS011;12865;51.934;10.330;2023-05-10T05:51:09;9.32;;;5.68;;
24761;SDS011;12865;51.934;10.330;2023-05-10T05:53:54;6.28;;;4.88;;
24761;SDS011;12865;51.934;10.330;2023-05-10T05:56:40;7.97;;;5.97;;
24761;SDS011;12865;51.934;10.330;2023-05-10T05:59:26;6.35;;;5.10;;
24761;SDS011;12865;51.934;10.330;2023-05-10T06:02:12;6.05;;;5.55;;
24761;SDS011;12865;51.934;10.330;2023-05-10T06:04:57;6.82;;;5.63;;
24761;SDS011;12865;51.934;10.330;2023-05-10T06:07:43;6.95;;;5.55;;
24761;SDS011;12865;51.934;10.330;2023-05-10T06:10:29;6.43;;;5.93;;
24761;SDS011;12865;51.934;10.330;2023-05-10T06:13:15;6.25;;;5.47;;
24761;SDS011;12865;51.934;10.330;2023-05-10T06:16:02;6.57;;;5.88;;
24761;SDS011;12865;51.934;10.330;2023-05-10T06:18:48;8.60;;;5.75;;
24761;SDS011;12865;51.934;10.330;2023-05-10T06:21:33;7.50;;;5.80;;
24761;SDS011;12865;51.934;10.330;2023-05-10T06:24:19;7.05;;;5.70;;
24761;SDS011;12865;51.934;10.330;2023-05-10T06:27:05;5.60;;;5.10;;
24761;SDS011;12865;51.934;10.330;2023-05-10T06:29:51;6.00;;;5.40;;
24761;SDS011;12865;51.934;10.330;2023-05-10T06:32:37;6.15;;;5.55;;
24761;SDS011;12865;51.934;10.330;2023-05-10T06:35:23;6.90;;;6.30;;
24761;SDS011;12865;51.934;10.330;2023-05-10T06:38:08;8.35;;;7.55;;
24761;SDS011;12865;51.934;10.330;2023-05-10T06:40:55;7.10;;;6.30;;
24761;SDS011;12865;51.934;10.330;2023-05-10T06:43:41;6.43;;;5.80;;
24761;SDS011;12865;51.934;10.330;2023-05-10T06:46:26;6.35;;;5.75;;
24761;SDS011;12865;51.934;10.330;2023-05-10T06:49:12;6.63;;;5.57;;
24761;SDS011;12865;51.934;10.330;2023-05-10T06:51:58;6.38;;;5.70;;
24761;SDS011;12865;51.934;10.330;2023-05-10T06:54:43;6.18;;;5.60;;
24761;SDS011;12865;51.934;10.330;2023-05-10T06:57:32;6.32;;;5.75;;
24761;SDS011;12865;51.934;10.330;2023-05-10T07:00:18;5.47;;;4.97;;
24761;SDS011;12865;51.934;10.330;2023-05-10T07:03:04;7.65;;;5.13;;
24761;SDS011;12865;51.934;10.330;2023-05-10T07:05:50;6.47;;;5.20;;
24761;SDS011;12865;51.934;10.330;2023-05-10T07:08:36;6.03;;;5.28;;
24761;SDS011;12865;51.934;10.330;2023-05-10T07:11:22;5.43;;;5.03;;
24761;SDS011;12865;51.934;10.330;2023-05-10T07:14:07;5.80;;;5.03;;
24761;SDS011;12865;51.934;10.330;2023-05-10T07:16:53;5.90;;;5.30;;
24761;SDS011;12865;51.934;10.330;2023-05-10T07:19:39;4.72;;;4.40;;
24761;SDS011;12865;51.934;10.330;2023-05-10T07:22:24;5.35;;;4.80;;
24761;SDS011;12865;51.934;10.330;2023-05-10T07:25:10;6.00;;;5.07;;
24761;SDS011;12865;51.934;10.330;2023-05-10T07:27:56;5.32;;;4.82;;
24761;SDS011;12865;51.934;10.330;2023-05-10T07:30:42;5.60;;;4.03;;
24761;SDS011;12865;51.934;10.330;2023-05-10T07:33:28;4.75;;;4.35;;
24761;SDS011;12865;51.934;10.330;2023-05-10T07:36:13;4.72;;;4.18;;
24761;SDS011;12865;51.934;10.330;2023-05-10T07:38:59;4.55;;;4.25;;
24761;SDS011;12865;51.934;10.330;2023-05-10T07:41:45;3.58;;;3.28;;
24761;SDS011;12865;51.934;10.330;2023-05-10T07:44:32;4.68;;;4.30;;
24761;SDS011;12865;51.934;10.330;2023-05-10T07:47:17;4.30;;;3.90;;
24761;SDS011;12865;51.934;10.330;2023-05-10T07:50:03;4.75;;;4.35;;
24761;SDS011;12865;51.934;10.330;2023-05-10T07:52:49;5.00;;;4.30;;
24761;SDS011;12865;51.934;10.330;2023-05-10T07:55:35;4.72;;;3.72;;
24761;SDS011;12865;51.934;10.330;2023-05-10T07:58:20;3.53;;;3.33;;
24761;SDS011;12865;51.934;10.330;2023-05-10T08:01:06;3.45;;;3.25;;
24761;SDS011;12865;51.934;10.330;2023-05-10T08:03:52;4.72;;;3.72;;
24761;SDS011;12865;51.934;10.330;2023-05-10T08:06:39;3.20;;;3.00;;
24761;SDS011;12865;51.934;10.330;2023-05-10T08:09:25;3.85;;;3.38;;
24761;SDS011;12865;51.934;10.330;2023-05-10T08:12:11;2.92;;;2.72;;
24761;SDS011;12865;51.934;10.330;2023-05-10T08:14:56;3.47;;;2.67;;
24761;SDS011;12865;51.934;10.330;2023-05-10T08:17:42;3.75;;;2.92;;
24761;SDS011;12865;51.934;10.330;2023-05-10T08:20:28;2.20;;;2.10;;
24761;SDS011;12865;51.934;10.330;2023-05-10T08:23:14;2.63;;;2.42;;
24761;SDS011;12865;51.934;10.330;2023-05-10T08:25:59;2.60;;;2.40;;
24761;SDS011;12865;51.934;10.330;2023-05-10T08:28:48;2.67;;;2.47;;
24761;SDS011;12865;51.934;10.330;2023-05-10T08:31:34;2.65;;;2.45;;
24761;SDS011;12865;51.934;10.330;2023-05-10T08:34:20;2.53;;;2.40;;
24761;SDS011;12865;51.934;10.330;2023-05-10T08:37:06;2.47;;;2.38;;
24761;SDS011;12865;51.934;10.330;2023-05-10T08:39:52;2.45;;;2.35;;
24761;SDS011;12865;51.934;10.330;2023-05-10T08:42:49;3.28;;;1.83;;
24761;SDS011;12865;51.934;10.330;2023-05-10T08:45:43;2.20;;;2.03;;
24761;SDS011;12865;51.934;10.330;2023-05-10T08:48:33;2.20;;;2.00;;
24761;SDS011;12865;51.934;10.330;2023-05-10T08:51:22;2.00;;;1.90;;
24761;SDS011;12865;51.934;10.330;2023-05-10T08:54:11;2.55;;;2.35;;
24761;SDS011;12865;51.934;10.330;2023-05-10T08:56:58;1.80;;;1.70;;
24761;SDS011;12865;51.934;10.330;2023-05-10T08:59:43;3.42;;;1.90;;
24761;SDS011;12865;51.934;10.330;2023-05-10T09:02:29;1.42;;;1.35;;
24761;SDS011;12865;51.934;10.330;2023-05-10T09:05:15;1.75;;;1.45;;
24761;SDS011;12865;51.934;10.330;2023-05-10T09:08:02;1.52;;;1.30;;
24761;SDS011;12865;51.934;10.330;2023-05-10T09:10:48;1.42;;;1.33;;
24761;SDS011;12865;51.934;10.330;2023-05-10T09:13:35;1.30;;;1.30;;
24761;SDS011;12865;51.934;10.330;2023-05-10T09:16:22;1.20;;;1.20;;
24761;SDS011;12865;51.934;10.330;2023-05-10T09:19:09;1.30;;;1.20;;
24761;SDS011;12865;51.934;10.330;2023-05-10T09:21:54;1.08;;;1.08;;
24761;SDS011;12865;51.934;10.330;2023-05-10T09:24:42;1.33;;;1.23;;
24761;SDS011;12865;51.934;10.330;2023-05-10T09:29:58;1.15;;;1.15;;
24761;SDS011;12865;51.934;10.330;2023-05-10T09:32:44;1.48;;;1.40;;
24761;SDS011;12865;51.934;10.330;2023-05-10T09:35:31;1.67;;;1.40;;
24761;SDS011;12865;51.934;10.330;2023-05-10T09:38:18;1.73;;;1.20;;
24761;SDS011;12865;51.934;10.330;2023-05-10T09:41:04;1.35;;;1.30;;
24761;SDS011;12865;51.934;10.330;2023-05-10T09:43:50;1.00;;;0.90;;
24761;SDS011;12865;51.934;10.330;2023-05-10T09:46:40;0.90;;;0.90;;
24761;SDS011;12865;51.934;10.330;2023-05-10T09:49:26;1.60;;;0.73;;
24761;SDS011;12865;51.934;10.330;2023-05-10T09:52:11;0.70;;;0.70;;
24761;SDS011;12865;51.934;10.330;2023-05-10T09:54:57;0.95;;;0.95;;
24761;SDS011;12865;51.934;10.330;2023-05-10T09:57:43;0.77;;;0.70;;
24761;SDS011;12865;51.934;10.330;2023-05-10T10:00:33;0.70;;;0.70;;
24761;SDS011;12865;51.934;10.330;2023-05-10T10:03:20;1.10;;;1.00;;
24761;SDS011;12865;51.934;10.330;2023-05-10T10:06:07;0.40;;;0.40;;
24761;SDS011;12865;51.934;10.330;2023-05-10T10:08:53;0.73;;;0.57;;
24761;SDS011;12865;51.934;10.330;2023-05-10T10:11:39;0.50;;;0.50;;
24761;SDS011;12865;51.934;10.330;2023-05-10T10:14:26;0.40;;;0.40;;
24761;SDS011;12865;51.934;10.330;2023-05-10T10:17:12;0.98;;;0.40;;
24761;SDS011;12865;51.934;10.330;2023-05-10T10:19:58;0.70;;;0.57;;
24761;SDS011;12865;51.934;10.330;2023-05-10T10:22:44;0.63;;;0.60;;
24761;SDS011;12865;51.934;10.330;2023-05-10T10:25:31;0.40;;;0.40;;
24761;SDS011;12865;51.934;10.330;2023-05-10T10:31:34;1.95;;;0.50;;
24761;SDS011;12865;51.934;10.330;2023-05-10T10:34:28;0.45;;;0.45;;
24761;SDS011;12865;51.934;10.330;2023-05-10T10:37:14;0.52;;;0.40;;
24761;SDS011;12865;51.934;10.330;2023-05-10T10:40:00;1.42;;;0.47;;
24761;SDS011;12865;51.934;10.330;2023-05-10T10:42:46;0.30;;;0.30;;
24761;SDS011;12865;51.934;10.330;2023-05-10T10:45:32;2.92;;;0.70;;
24761;SDS011;12865;51.934;10.330;2023-05-10T10:48:22;1.70;;;0.40;;
24761;SDS011;12865;51.934;10.330;2023-05-10T10:51:08;8.23;;;1.48;;
24761;SDS011;12865;51.934;10.330;2023-05-10T10:53:54;1.33;;;0.70;;
24761;SDS011;12865;51.934;10.330;2023-05-10T10:56:39;5.47;;;1.65;;
24761;SDS011;12865;51.934;10.330;2023-05-10T10:59:28;3.03;;;0.40;;
24761;SDS011;12865;51.934;10.330;2023-05-10T11:02:57;2.70;;;0.80;;
24761;SDS011;12865;51.934;10.330;2023-05-10T11:08:33;0.75;;;0.75;;
24761;SDS011;12865;51.934;10.330;2023-05-10T11:11:27;1.70;;;0.70;;
24761;SDS011;12865;51.934;10.330;2023-05-10T11:14:14;0.50;;;0.50;;
24761;SDS011;12865;51.934;10.330;2023-05-10T11:17:00;0.63;;;0.60;;
24761;SDS011;12865;51.934;10.330;2023-05-10T11:20:02;0.82;;;0.52;;
24761;SDS011;12865;51.934;10.330;2023-05-10T11:23:10;0.50;;;0.50;;
24761;SDS011;12865;51.934;10.330;2023-05-10T11:26:01;1.02;;;0.38;;
24761;SDS011;12865;51.934;10.330;2023-05-10T11:28:47;0.60;;;0.60;;
24761;SDS011;12865;51.934;10.330;2023-05-10T11:31:34;0.40;;;0.40;;
24761;SDS011;12865;51.934;10.330;2023-05-10T11:34:30;0.70;;;0.70;;
24761;SDS011;12865;51.934;10.330;2023-05-10T11:37:18;0.60;;;0.60;;
24761;SDS011;12865;51.934;10.330;2023-05-10T11:40:04;1.20;;;0.80;;
24761;SDS011;12865;51.934;10.330;2023-05-10T11:42:50;1.10;;;1.10;;
24761;SDS011;12865;51.934;10.330;2023-05-10T11:45:36;1.67;;;1.30;;
24761;SDS011;12865;51.934;10.330;2023-05-10T11:48:22;0.60;;;0.60;;
24761;SDS011;12865;51.934;10.330;2023-05-10T11:51:09;0.52;;;0.52;;
24761;SDS011;12865;51.934;10.330;2023-05-10T11:53:56;0.60;;;0.60;;
24761;SDS011;12865;51.934;10.330;2023-05-10T11:56:42;2.60;;;0.93;;
24761;SDS011;12865;51.934;10.330;2023-05-10T11:59:27;0.60;;;0.60;;
24761;SDS011;12865;51.934;10.330;2023-05-10T12:02:22;1.33;;;0.65;;
24761;SDS011;12865;51.934;10.330;2023-05-10T12:05:08;1.33;;;0.80;;
24761;SDS011;12865;51.934;10.330;2023-05-10T12:08:10;0.88;;;0.70;;
24761;SDS011;12865;51.934;10.330;2023-05-10T12:11:06;0.98;;;0.70;;
24761;SDS011;12865;51.934;10.330;2023-05-10T12:13:53;1.00;;;1.00;;
24761;SDS011;12865;51.934;10.330;2023-05-10T12:16:40;0.90;;;0.63;;
24761;SDS011;12865;51.934;10.330;2023-05-10T12:19:25;2.65;;;0.80;;
24761;SDS011;12865;51.934;10.330;2023-05-10T12:22:11;0.77;;;0.77;;
24761;SDS011;12865;51.934;10.330;2023-05-10T12:24:58;0.98;;;0.68;;
24761;SDS011;12865;51.934;10.330;2023-05-10T12:27:47;1.77;;;0.50;;
24761;SDS011;12865;51.934;10.330;2023-05-10T12:30:37;1.00;;;0.70;;
24761;SDS011;12865;51.934;10.330;2023-05-10T12:33:24;0.63;;;0.60;;
24761;SDS011;12865;51.934;10.330;2023-05-10T12:36:10;1.40;;;0.80;;
24761;SDS011;12865;51.934;10.330;2023-05-10T12:39:02;0.75;;;0.70;;
24761;SDS011;12865;51.934;10.330;2023-05-10T12:41:48;0.75;;;0.68;;
24761;SDS011;12865;51.934;10.330;2023-05-10T12:44:34;0.85;;;0.70;;
24761;SDS011;12865;51.934;10.330;2023-05-10T12:47:19;0.77;;;0.68;;
24761;SDS011;12865;51.934;10.330;2023-05-10T12:50:05;1.30;;;0.70;;
24761;SDS011;12865;51.934;10.330;2023-05-10T12:52:51;1.23;;;0.77;;
24761;SDS011;12865;51.934;10.330;2023-05-10T12:55:37;2.13;;;0.95;;
24761;SDS011;12865;51.934;10.330;2023-05-10T12:58:23;2.05;;;0.70;;
24761;SDS011;12865;51.934;10.330;2023-05-10T13:01:08;2.28;;;0.80;;
24761;SDS011;12865;51.934;10.330;2023-05-10T13:03:54;3.95;;;0.77;;
24761;SDS011;12865;51.934;10.330;2023-05-10T13:06:40;1.05;;;0.70;;
24761;SDS011;12865;51.934;10.330;2023-05-10T13:09:26;2.70;;;0.80;;
24761;SDS011;12865;51.934;10.330;2023-05-10T13:12:12;0.82;;;0.80;;
24761;SDS011;12865;51.934;10.330;2023-05-10T13:14:58;0.60;;;0.60;;
24761;SDS011;12865;51.934;10.330;2023-05-10T13:17:43;1.25;;;0.88;;
24761;SDS011;12865;51.934;10.330;2023-05-10T13:20:30;1.25;;;1.00;;
24761;SDS011;12865;51.934;10.330;2023-05-10T13:23:16;0.82;;;0.82;;
24761;SDS011;12865;51.934;10.330;2023-05-10T13:26:01;0.73;;;0.73;;
24761;SDS011;12865;51.934;10.330;2023-05-10T13:28:47;1.85;;;0.88;;
24761;SDS011;12865;51.934;10.330;2023-05-10T13:31:34;1.85;;;1.00;;
24761;SDS011;12865;51.934;10.330;2023-05-10T13:34:20;2.13;;;1.20;;
24761;SDS011;12865;51.934;10.330;2023-05-10T13:37:05;1.20;;;1.10;;
24761;SDS011;12865;51.934;10.330;2023-05-10T13:39:51;2.80;;;1.27;;
24761;SDS011;12865;51.934;10.330;2023-05-10T13:42:37;1.92;;;1.00;;
24761;SDS011;12865;51.934;10.330;2023-05-10T13:45:22;1.25;;;0.90;;
24761;SDS011;12865;51.934;10.330;2023-05-10T13:48:08;1.00;;;0.93;;
24761;SDS011;12865;51.934;10.330;2023-05-10T13:50:54;2.35;;;1.50;;
24761;SDS011;12865;51.934;10.330;2023-05-10T13:53:40;2.05;;;1.13;;
24761;SDS011;12865;51.934;10.330;2023-05-10T13:56:25;1.30;;;1.20;;
24761;SDS011;12865;51.934;10.330;2023-05-10T13:59:11;1.42;;;1.30;;
24761;SDS011;12865;51.934;10.330;2023-05-10T14:01:57;1.65;;;1.30;;
24761;SDS011;12865;51.934;10.330;2023-05-10T14:04:43;2.70;;;1.67;;
24761;SDS011;12865;51.934;10.330;2023-05-10T14:07:29;2.97;;;1.65;;
24761;SDS011;12865;51.934;10.330;2023-05-10T14:10:16;1.85;;;1.20;;
24761;SDS011;12865;51.934;10.330;2023-05-10T14:13:01;1.00;;;1.00;;
24761;SDS011;12865;51.934;10.330;2023-05-10T14:15:48;1.80;;;1.10;;
24761;SDS011;12865;51.934;10.330;2023-05-10T14:18:34;2.03;;;1.08;;
24761;SDS011;12865;51.934;10.330;2023-05-10T14:21:19;2.45;;;1.25;;
24761;SDS011;12865;51.934;10.330;2023-05-10T14:24:05;1.55;;;1.20;;
24761;SDS011;12865;51.934;10.330;2023-05-10T14:26:52;1.45;;;1.10;;
24761;SDS011;12865;51.934;10.330;2023-05-10T14:29:40;1.70;;;1.00;;
24761;SDS011;12865;51.934;10.330;2023-05-10T14:32:26;2.47;;;1.40;;
24761;SDS011;12865;51.934;10.330;2023-05-10T14:35:13;1.08;;;1.08;;
24761;SDS011;12865;51.934;10.330;2023-05-10T14:37:58;1.35;;;1.23;;
24761;SDS011;12865;51.934;10.330;2023-05-10T14:40:44;1.40;;;0.98;;
24761;SDS011;12865;51.934;10.330;2023-05-10T14:43:30;1.13;;;1.00;;
24761;SDS011;12865;51.934;10.330;2023-05-10T14:46:16;2.53;;;1.10;;
24761;SDS011;12865;51.934;10.330;2023-05-10T14:49:01;2.15;;;1.05;;
24761;SDS011;12865;51.934;10.330;2023-05-10T14:51:47;1.55;;;1.23;;
24761;SDS011;12865;51.934;10.330;2023-05-10T14:54:33;1.10;;;1.00;;
24761;SDS011;12865;51.934;10.330;2023-05-10T14:57:18;1.15;;;1.05;;
24761;SDS011;12865;51.934;10.330;2023-05-10T15:00:04;1.15;;;1.05;;
24761;SDS011;12865;51.934;10.330;2023-05-10T15:02:50;2.60;;;1.33;;
24761;SDS011;12865;51.934;10.330;2023-05-10T15:05:36;1.13;;;1.10;;
24761;SDS011;12865;51.934;10.330;2023-05-10T15:08:23;1.77;;;1.20;;
24761;SDS011;12865;51.934;10.330;2023-05-10T15:11:09;1.30;;;1.20;;
24761;SDS011;12865;51.934;10.330;2023-05-10T15:13:55;1.27;;;1.17;;
24761;SDS011;12865;51.934;10.330;2023-05-10T15:16:41;1.00;;;1.00;;
24761;SDS011;12865;51.934;10.330;2023-05-10T15:19:26;1.20;;;1.10;;
24761;SDS011;12865;51.934;10.330;2023-05-10T15:22:14;1.27;;;1.13;;
24761;SDS011;12865;51.934;10.330;2023-05-10T15:24:59;1.20;;;1.10;;
24761;SDS011;12865;51.934;10.330;2023-05-10T15:27:45;1.10;;;1.08;;
24761;SDS011;12865;51.934;10.330;2023-05-10T15:30:31;2.33;;;1.20;;
24761;SDS011;12865;51.934;10.330;2023-05-10T15:33:16;3.13;;;1.13;;
24761;SDS011;12865;51.934;10.330;2023-05-10T15:36:02;2.33;;;1.30;;
24761;SDS011;12865;51.934;10.330;2023-05-10T15:38:49;1.20;;;1.10;;
24761;SDS011;12865;51.934;10.330;2023-05-10T15:41:35;2.88;;;1.40;;
24761;SDS011;12865;51.934;10.330;2023-05-10T15:44:21;1.10;;;0.93;;
24761;SDS011;12865;51.934;10.330;2023-05-10T15:47:07;1.25;;;1.13;;
24761;SDS011;12865;51.934;10.330;2023-05-10T15:49:52;1.13;;;1.13;;
24761;SDS011;12865;51.934;10.330;2023-05-10T15:52:38;1.80;;;1.20;;
24761;SDS011;12865;51.934;10.330;2023-05-10T15:55:24;1.33;;;1.17;;
24761;SDS011;12865;51.934;10.330;2023-05-10T15:58:10;3.20;;;1.73;;
24761;SDS011;12865;51.934;10.330;2023-05-10T16:00:56;3.03;;;1.33;;
24761;SDS011;12865;51.934;10.330;2023-05-10T16:03:42;2.78;;;1.20;;
24761;SDS011;12865;51.934;10.330;2023-05-10T16:06:28;1.10;;;1.10;;
24761;SDS011;12865;51.934;10.330;2023-05-10T16:09:13;2.30;;;1.17;;
24761;SDS011;12865;51.934;10.330;2023-05-10T16:11:59;1.60;;;1.10;;
24761;SDS011;12865;51.934;10.330;2023-05-10T16:14:47;1.17;;;1.17;;
24761;SDS011;12865;51.934;10.330;2023-05-10T16:17:32;2.10;;;1.95;;
24761;SDS011;12865;51.934;10.330;2023-05-10T16:20:18;1.70;;;1.60;;
24761;SDS011;12865;51.934;10.330;2023-05-10T16:23:04;1.70;;;1.40;;
24761;SDS011;12865;51.934;10.330;2023-05-10T16:25:52;3.80;;;1.17;;
24761;SDS011;12865;51.934;10.330;2023-05-10T16:28:38;1.50;;;1.40;;
24761;SDS011;12865;51.934;10.330;2023-05-10T16:31:25;2.90;;;1.60;;
24761;SDS011;12865;51.934;10.330;2023-05-10T16:34:10;1.65;;;1.55;;
24761;SDS011;12865;51.934;10.330;2023-05-10T16:36:56;3.13;;;1.58;;
24761;SDS011;12865;51.934;10.330;2023-05-10T16:39:42;2.05;;;1.58;;
24761;SDS011;12865;51.934;10.330;2023-05-10T16:42:28;3.15;;;1.63;;
24761;SDS011;12865;51.934;10.330;2023-05-10T16:45:14;1.55;;;1.45;;
24761;SDS011;12865;51.934;10.330;2023-05-10T16:48:01;3.45;;;1.52;;
24761;SDS011;12865;51.934;10.330;2023-05-10T16:50:46;2.80;;;1.60;;
24761;SDS011;12865;51.934;10.330;2023-05-10T16:53:32;3.22;;;1.38;;
24761;SDS011;12865;51.934;10.330;2023-05-10T16:56:18;1.80;;;1.70;;